Archival Weather

Glendale Muni

Glendale, Arizona (KGEU)

Report from: Wednesday, December 6, 2023 1:48 PM MST
Current time: Wednesday, April 24, 2024 12:07 PM MST

Current weather – Weather history – Daily summaries
Weather forecast

Temperature27.0°C (80.6°F)
Heat index26.2°C (79.2°F)
Dew point-2.0°C (28.4°F)
Winds 7 kts (3.6 m/s, 8.1 mph) East-Northeast (60°)
Visibility10 mi. (16.1 km)
Clouds Few clouds 20,000 ft. (6,096 m)
Altimeter29.99 in.Hg (1016 mB)
Relative humidity15 %
Density altitude1,393 ft. (425 m)
Flight conditions Visual Meteorological Conditions
Raw dataKGEU 062048Z 06007KT 10SM FEW200 27/M02 A2999
An error has occurred. This application may no longer respond until reloaded. Reload 🗙